Time;durP1;ratioP1;P1;durP2;ratioP2;P2;SDS_P1;SDS_P2;PMS_P1;PMS_P2;Temp;Humidity;BMP_temperature;BMP_pressure;BME280_temperature;BME280_humidity;BME280_pressure;Samples;Min_cycle;Max_cycle;Signal;HPM_P1;HPM_P2
2022/01/20 00:04:13;;;;;;;29.57;19.00;;;;;;;1.83;86.57;99940.55;1592697;87;27662;-76
2022/01/20 00:09:34;;;;;;;28.60;16.70;;;;;;;1.86;86.74;99935.79;1631080;86;26000;-76
2022/01/20 00:28:21;;;;;;;28.07;17.80;;;;;;;1.89;85.94;99899.86;1631421;87;25823;-76
2022/01/20 00:38:19;;;;;;;36.40;19.52;;;;;;;1.91;85.87;99867.53;1631150;87;25843;-76
2022/01/20 00:40:46;;;;;;;32.93;18.02;;;;;;;1.92;85.91;99861.77;1631203;86;26487;-77
2022/01/20 00:43:13;;;;;;;35.20;19.27;;;;;;;1.92;85.81;99854.67;1631074;87;28265;-76
2022/01/20 00:45:39;;;;;;;37.63;19.95;;;;;;;1.92;85.43;99850.72;1621871;87;25772;-76
2022/01/20 00:48:06;;;;;;;31.80;18.82;;;;;;;1.94;85.63;99847.44;1620169;87;25872;-76
2022/01/20 00:50:35;;;;;;;32.33;18.17;;;;;;;1.95;85.70;99843.80;1619982;87;25783;-76
2022/01/20 00:53:03;;;;;;;33.58;20.17;;;;;;;1.96;85.76;99838.88;1619855;87;25855;-77
2022/01/20 00:55:30;;;;;;;31.80;19.07;;;;;;;1.96;85.72;99835.39;1620133;87;28280;-75
2022/01/20 00:57:57;;;;;;;31.55;20.08;;;;;;;1.98;85.68;99835.59;1620177;87;25733;-77
2022/01/20 01:00:23;;;;;;;36.93;20.17;;;;;;;1.99;85.59;99829.31;1620109;87;25857;-77
2022/01/20 01:02:49;;;;;;;32.53;18.73;;;;;;;2.01;85.20;99822.58;1620056;87;25941;-76
2022/01/20 01:05:18;;;;;;;41.60;21.50;;;;;;;2.02;85.31;99821.09;1620273;87;25900;-76
2022/01/20 01:07:46;;;;;;;34.00;19.92;;;;;;;2.03;85.65;99825.37;1620298;87;27502;-77
2022/01/20 01:10:30;;;;;;;34.27;20.00;;;;;;;2.06;85.63;99816.33;1620201;87;25972;-77
2022/01/20 01:13:02;;;;;;;33.15;18.25;;;;;;;2.06;85.09;99811.88;1620118;87;25774;-76
2022/01/20 01:15:38;;;;;;;32.00;18.85;;;;;;;2.07;85.20;99805.63;1620001;87;26663;-76
2022/01/20 01:23:38;;;;;;;35.30;19.57;;;;;;;2.09;85.10;99791.78;1619872;87;25965;-77
2022/01/20 01:26:09;;;;;;;33.35;19.70;;;;;;;2.10;85.74;99793.91;1620123;87;26543;-77
2022/01/20 01:28:36;;;;;;;25.52;16.15;;;;;;;2.10;85.70;99780.70;1609165;88;25837;-76
2022/01/20 01:31:29;;;;;;;28.70;18.30;;;;;;;2.10;85.52;99782.02;1619849;87;25872;-77
2022/01/20 01:33:38;;;;;;;34.03;20.08;;;;;;;2.10;85.56;99774.09;1618194;88;27599;-76
2022/01/20 01:36:06;;;;;;;34.75;18.00;;;;;;;2.11;85.74;99770.00;1619952;87;25986;-76
2022/01/20 01:38:38;;;;;;;39.35;20.27;;;;;;;2.12;85.86;99769.48;1620284;87;25839;-77
2022/01/20 01:41:14;;;;;;;31.17;17.60;;;;;;;2.11;85.96;99762.08;1620011;87;25806;-77
2022/01/20 01:43:46;;;;;;;34.43;20.40;;;;;;;2.11;86.44;99751.99;1620134;87;25911;-76
2022/01/20 01:46:14;;;;;;;34.98;19.10;;;;;;;2.07;87.02;99753.29;1625097;87;27452;-76
2022/01/20 01:48:44;;;;;;;35.75;19.00;;;;;;;2.04;87.44;99745.66;1617606;87;25900;-76
2022/01/20 01:51:12;;;;;;;36.65;20.23;;;;;;;2.02;87.71;99742.34;1617887;87;25846;-76
2022/01/20 01:53:40;;;;;;;34.35;19.90;;;;;;;2.00;87.92;99745.14;1617677;88;26010;-75
2022/01/20 01:56:08;;;;;;;36.60;21.30;;;;;;;1.97;88.36;99738.00;1618090;88;25981;-78
2022/01/20 01:58:36;;;;;;;36.10;20.97;;;;;;;1.94;88.73;99735.20;1617887;88;27470;-76
2022/01/20 02:01:09;;;;;;;33.23;18.55;;;;;;;1.91;89.17;99740.77;1616678;87;26576;-76
2022/01/20 02:03:44;;;;;;;40.17;21.23;;;;;;;1.88;89.46;99731.02;1617541;87;25789;-76
2022/01/20 02:06:27;;;;;;;35.43;20.62;;;;;;;1.84;89.88;99723.88;1617591;88;25847;-76
2022/01/20 02:08:50;;;;;;;35.90;20.27;;;;;;;1.82;90.08;99727.16;1615376;88;25853;-76
2022/01/20 02:19:23;;;;;;;34.27;20.85;;;;;;;1.67;91.74;99705.43;1617930;87;25828;-77
2022/01/20 02:22:01;;;;;;;39.45;22.50;;;;;;;1.65;91.66;99701.59;1615719;87;25810;-76
2022/01/20 02:24:29;;;;;;;35.28;22.80;;;;;;;1.63;91.93;99690.36;1617907;87;27554;-77
2022/01/20 02:26:55;;;;;;;31.30;19.25;;;;;;;1.61;92.06;99680.45;1617912;88;25801;-76
2022/01/20 02:29:24;;;;;;;37.05;21.93;;;;;;;1.62;92.47;99672.05;1617347;87;25835;-76
2022/01/20 02:31:57;;;;;;;37.00;22.22;;;;;;;1.60;92.44;99668.25;1617905;88;26553;-76
2022/01/20 02:34:27;;;;;;;41.05;21.93;;;;;;;1.57;92.22;99663.27;1618007;87;26022;-75
2022/01/20 02:36:53;;;;;;;37.17;21.00;;;;;;;1.58;92.52;99671.02;1618321;88;27475;-76
2022/01/20 02:39:46;;;;;;;39.85;23.60;;;;;;;1.55;92.93;99659.95;1617720;87;25983;-75
2022/01/20 02:44:54;;;;;;;44.23;24.52;;;;;;;1.43;93.05;99654.06;1618729;87;26589;-76
2022/01/20 02:47:29;;;;;;;38.67;20.92;;;;;;;1.38;93.71;99650.23;1632810;87;25328;-76
2022/01/20 02:49:56;;;;;;;39.65;22.87;;;;;;;1.34;94.56;99641.81;1632445;86;26855;-76
2022/01/20 02:52:24;;;;;;;40.63;24.37;;;;;;;1.31;94.42;99635.50;1632569;85;25835;-76
2022/01/20 02:54:51;;;;;;;41.23;23.02;;;;;;;1.29;94.37;99635.31;1632873;87;25912;-76
2022/01/20 02:57:18;;;;;;;40.10;23.07;;;;;;;1.26;94.80;99632.48;1632429;86;25845;-75
2022/01/20 02:59:45;;;;;;;33.48;19.75;;;;;;;1.27;95.18;99616.17;1632601;86;26581;-77
2022/01/20 03:02:11;;;;;;;38.48;24.02;;;;;;;1.25;95.68;99618.97;1632399;87;27640;-76
2022/01/20 03:04:39;;;;;;;40.43;22.10;;;;;;;1.25;95.70;99607.09;1632899;87;25811;-75
2022/01/20 03:07:08;;;;;;;35.75;20.68;;;;;;;1.28;95.39;99610.73;1632678;87;25904;-77
2022/01/20 03:09:35;;;;;;;36.20;21.30;;;;;;;1.29;95.53;99615.05;1632944;86;26971;-75
2022/01/20 03:12:04;;;;;;;37.23;22.48;;;;;;;1.30;95.57;99610.60;1632368;87;25899;-76
2022/01/20 03:14:31;;;;;;;42.15;24.70;;;;;;;1.31;95.93;99600.38;1632631;87;27468;-76
2022/01/20 03:16:57;;;;;;;38.42;22.48;;;;;;;1.30;95.92;99592.14;1632463;87;26289;-76
2022/01/20 03:19:24;;;;;;;38.23;22.27;;;;;;;1.30;95.94;99598.25;1632646;86;25823;-75
2022/01/20 03:21:50;;;;;;;35.30;19.75;;;;;;;1.31;96.09;99589.34;1632561;85;26567;-76
2022/01/20 03:24:16;;;;;;;34.55;21.25;;;;;;;1.33;96.53;99587.86;1632488;87;25711;-76
2022/01/20 03:26:42;;;;;;;39.40;22.40;;;;;;;1.34;96.46;99584.25;1632553;87;27708;-76
2022/01/20 03:29:12;;;;;;;33.67;19.85;;;;;;;1.33;96.87;99580.78;1632613;86;26539;-76
2022/01/20 03:31:38;;;;;;;32.15;19.48;;;;;;;1.34;97.43;99574.53;1632837;87;26522;-76
2022/01/20 03:34:06;;;;;;;28.30;16.97;;;;;;;1.34;97.51;99573.22;1632659;87;25804;-77
2022/01/20 03:36:34;;;;;;;30.12;18.95;;;;;;;1.37;97.52;99572.05;1632825;87;25801;-76
2022/01/20 03:39:04;;;;;;;33.95;20.15;;;;;;;1.40;97.79;99575.72;1632058;87;28313;-76
2022/01/20 03:41:31;;;;;;;34.80;19.45;;;;;;;1.42;98.03;99579.03;1632447;86;25961;-77
2022/01/20 03:43:58;;;;;;;27.93;17.07;;;;;;;1.44;97.54;99582.34;1632411;87;26474;-76
2022/01/20 03:46:24;;;;;;;26.75;17.05;;;;;;;1.46;97.68;99575.94;1631907;87;26303;-77
2022/01/20 03:48:54;;;;;;;28.70;18.65;;;;;;;1.49;97.88;99578.77;1631591;87;25339;-78
2022/01/20 03:51:23;;;;;;;24.95;15.88;;;;;;;1.50;97.70;99570.69;1631452;86;27515;-77
2022/01/20 03:53:53;;;;;;;34.73;18.77;;;;;;;1.52;98.45;99563.44;1630939;87;25847;-76
2022/01/20 03:56:23;;;;;;;25.30;15.70;;;;;;;1.55;97.96;99557.03;1631452;87;25616;-75
2022/01/20 03:58:54;;;;;;;27.37;16.80;;;;;;;1.58;97.87;99555.41;1630655;87;26162;-77
2022/01/20 04:01:21;;;;;;;25.15;16.30;;;;;;;1.61;97.80;99564.80;1631594;86;25828;-75
2022/01/20 04:03:55;;;;;;;30.02;18.37;;;;;;;1.65;98.10;99566.18;1630328;87;27483;-76
2022/01/20 04:06:24;;;;;;;28.52;18.98;;;;;;;1.66;97.84;99558.58;1630748;87;26725;-75
2022/01/20 04:08:51;;;;;;;26.23;16.87;;;;;;;1.70;97.82;99558.61;1631194;87;25911;-76
2022/01/20 04:11:24;;;;;;;29.72;18.25;;;;;;;1.72;97.73;99557.47;1631123;86;26606;-77
2022/01/20 04:13:52;;;;;;;29.50;17.35;;;;;;;1.75;98.15;99548.41;1630466;87;25969;-76
2022/01/20 04:16:36;;;;;;;24.90;17.02;;;;;;;1.77;98.04;99543.80;1631531;87;27398;-76
2022/01/20 04:19:07;;;;;;;24.32;15.48;;;;;;;1.79;97.82;99542.67;1631059;87;25386;-76
2022/01/20 04:21:35;;;;;;;25.00;15.35;;;;;;;1.80;98.21;99539.03;1631499;87;26528;-77
2022/01/20 04:24:04;;;;;;;29.60;18.50;;;;;;;1.82;98.37;99544.17;1631045;87;25833;-76
2022/01/20 04:26:35;;;;;;;25.20;15.93;;;;;;;1.85;98.20;99548.64;1631685;87;25874;-76
2022/01/20 04:29:00;;;;;;;25.68;17.30;;;;;;;1.86;98.23;99539.72;1631352;87;27006;-76
2022/01/20 04:31:30;;;;;;;27.27;17.52;;;;;;;1.87;98.15;99533.47;1630913;86;25854;-77
2022/01/20 04:33:57;;;;;;;25.75;16.27;;;;;;;1.89;98.08;99529.34;1631070;87;25771;-77
2022/01/20 04:36:26;;;;;;;26.90;17.20;;;;;;;1.90;98.11;99530.52;1631113;87;26569;-76
2022/01/20 04:38:52;;;;;;;24.20;14.28;;;;;;;1.92;97.95;99526.39;1631215;87;26029;-76
2022/01/20 04:41:20;;;;;;;25.60;17.20;;;;;;;1.94;97.96;99525.26;1631269;86;27524;-76
2022/01/20 04:43:49;;;;;;;25.65;17.07;;;;;;;1.95;97.71;99521.61;1619605;87;25852;-77
2022/01/20 04:46:25;;;;;;;23.20;14.73;;;;;;;1.98;97.75;99523.95;1626375;87;26249;-77
2022/01/20 04:57:16;;;;;;;22.10;14.05;;;;;;;2.04;97.42;99515.88;1620027;87;26041;-75
2022/01/20 04:59:34;;;;;;;30.55;16.12;;;;;;;2.02;97.50;99513.41;1619686;87;25333;-77
2022/01/20 05:02:01;;;;;;;27.37;17.77;;;;;;;2.03;97.51;99513.72;1619939;87;25924;-75
2022/01/20 05:04:32;;;;;;;26.12;16.82;;;;;;;2.03;97.52;99503.16;1619805;87;26589;-77
2022/01/20 05:07:17;;;;;;;29.95;18.25;;;;;;;2.02;97.76;99504.16;1619864;87;27550;-75
2022/01/20 05:09:38;;;;;;;29.42;19.15;;;;;;;2.00;97.50;99507.45;1620066;87;25946;-77
2022/01/20 05:12:12;;;;;;;29.45;19.57;;;;;;;1.99;97.47;99500.50;1608955;88;25471;-77
2022/01/20 05:14:33;;;;;;;28.83;18.50;;;;;;;2.01;97.29;99508.29;1619820;87;26555;-75
2022/01/20 05:17:00;;;;;;;27.80;17.05;;;;;;;2.01;97.40;99511.73;1620207;87;25924;-76
2022/01/20 05:19:30;;;;;;;29.95;17.87;;;;;;;2.01;97.37;99510.41;1620320;87;27540;-75
2022/01/20 05:21:59;;;;;;;37.10;20.82;;;;;;;2.03;97.38;99508.44;1609014;88;26002;-76
2022/01/20 05:24:27;;;;;;;17.60;9.80;;;;;;;2.02;97.34;99538.98;1620677;87;26683;-77
2022/01/20 05:26:55;;;;;;;12.53;6.87;;;;;;;1.89;96.01;99531.98;1609083;88;25809;-76
2022/01/20 05:29:22;;;;;;;12.18;5.85;;;;;;;1.69;94.65;99532.69;1619873;87;26633;-76
2022/01/20 05:31:50;;;;;;;12.93;5.72;;;;;;;1.55;94.54;99536.75;1620168;87;27544;-76
2022/01/20 05:34:17;;;;;;;9.38;5.22;;;;;;;1.48;94.25;99544.11;1620441;87;25854;-76
2022/01/20 05:36:47;;;;;;;9.65;4.83;;;;;;;1.44;93.46;99536.17;1620529;88;25907;-76
2022/01/20 05:39:14;;;;;;;12.45;4.75;;;;;;;1.42;93.21;99535.02;1609059;87;26093;-76
2022/01/20 05:41:42;;;;;;;8.70;5.17;;;;;;;1.43;92.79;99536.66;1620425;87;26027;-76
2022/01/20 05:44:10;;;;;;;13.25;5.10;;;;;;;1.44;92.88;99536.17;1619734;87;27455;-76
2022/01/20 05:46:42;;;;;;;8.70;3.85;;;;;;;1.43;92.00;99545.08;1624541;87;25329;-75
2022/01/20 05:49:09;;;;;;;11.80;3.37;;;;;;;1.43;92.06;99536.66;1631589;87;25837;-77
2022/01/20 05:51:39;;;;;;;11.10;3.60;;;;;;;1.42;91.33;99535.02;1631029;87;26346;-76
2022/01/20 05:54:08;;;;;;;10.13;3.00;;;;;;;1.40;90.83;99529.06;1631609;87;25886;-77
2022/01/20 05:56:35;;;;;;;6.47;3.05;;;;;;;1.38;90.96;99519.16;1631214;86;28082;-75
2022/01/20 05:59:03;;;;;;;8.68;2.77;;;;;;;1.38;90.61;99524.92;1631106;87;25815;-75
2022/01/20 06:01:32;;;;;;;10.80;2.80;;;;;;;1.36;90.66;99526.88;1631422;86;26446;-79
2022/01/20 06:03:59;;;;;;;6.67;2.85;;;;;;;1.36;90.67;99526.40;1631373;87;26454;-78
2022/01/20 06:06:26;;;;;;;7.40;2.22;;;;;;;1.35;90.28;99541.88;1631454;87;25831;-77
2022/01/20 06:08:53;;;;;;;10.82;3.37;;;;;;;1.34;89.25;99540.72;1631065;87;28318;-78
2022/01/20 06:11:19;;;;;;;6.30;2.40;;;;;;;1.34;89.54;99550.79;1630856;86;26408;-75
2022/01/20 06:13:47;;;;;;;5.05;1.87;;;;;;;1.34;90.02;99550.79;1631166;87;25846;-76
2022/01/20 06:16:15;;;;;;;4.78;2.62;;;;;;;1.36;89.38;99554.59;1631292;87;25932;-75
2022/01/20 06:18:41;;;;;;;11.78;3.45;;;;;;;1.36;89.13;99548.83;1631705;87;26428;-76
2022/01/20 06:21:08;;;;;;;10.75;2.17;;;;;;;1.39;89.36;99551.66;1631142;86;27483;-76
2022/01/20 06:23:35;;;;;;;10.65;2.62;;;;;;;1.40;89.16;99555.45;1631060;87;25978;-76
2022/01/20 06:26:05;;;;;;;7.87;3.10;;;;;;;1.40;88.66;99541.42;1630665;87;26120;-75
2022/01/20 06:28:34;;;;;;;13.08;2.80;;;;;;;1.40;88.60;99536.98;1631627;87;25775;-76
2022/01/20 06:31:01;;;;;;;16.13;2.63;;;;;;;1.42;88.52;99528.41;1630837;86;25827;-75
2022/01/20 06:33:27;;;;;;;6.70;2.60;;;;;;;1.43;88.67;99527.41;1630964;87;28307;-76
2022/01/20 06:35:56;;;;;;;13.78;2.80;;;;;;;1.44;88.10;99524.30;1631016;87;26440;-76
2022/01/20 06:38:24;;;;;;;8.75;2.22;;;;;;;1.43;88.17;99523.45;1631214;87;25912;-75
2022/01/20 06:40:51;;;;;;;10.35;2.72;;;;;;;1.41;87.17;99518.83;1631515;86;26579;-76
2022/01/20 06:43:17;;;;;;;6.75;2.58;;;;;;;1.40;87.26;99518.99;1631320;87;26093;-76
2022/01/20 06:45:44;;;;;;;8.93;1.98;;;;;;;1.38;87.29;99524.92;1631377;87;27474;-75
2022/01/20 06:48:12;;;;;;;9.60;2.75;;;;;;;1.37;86.87;99522.77;1608873;87;25913;-75
2022/01/20 06:50:40;;;;;;;10.80;2.42;;;;;;;1.36;86.51;99524.25;1604565;87;25937;-76
2022/01/20 06:53:07;;;;;;;12.47;3.12;;;;;;;1.35;85.99;99518.14;1607168;88;26507;-75
2022/01/20 06:55:34;;;;;;;9.20;2.70;;;;;;;1.34;85.93;99520.45;1606758;87;25959;-76
2022/01/20 06:58:02;;;;;;;8.53;3.10;;;;;;;1.34;85.90;99523.58;1607172;88;27537;-76
2022/01/20 07:00:29;;;;;;;9.95;2.62;;;;;;;1.33;86.14;99513.51;1584898;89;25909;-76
2022/01/20 07:02:56;;;;;;;12.47;2.72;;;;;;;1.34;85.74;99521.77;1606639;88;25747;-76
2022/01/20 07:05:24;;;;;;;8.83;2.62;;;;;;;1.34;85.44;99529.69;1606674;88;25828;-76
2022/01/20 07:07:50;;;;;;;11.83;4.00;;;;;;;1.35;85.05;99526.05;1607094;89;25934;-76
2022/01/20 07:10:20;;;;;;;14.10;3.85;;;;;;;1.34;85.18;99521.77;1605442;87;27574;-75
2022/01/20 07:12:49;;;;;;;10.20;3.25;;;;;;;1.33;83.87;99517.46;1589448;88;25929;-77
2022/01/20 07:15:17;;;;;;;11.63;3.17;;;;;;;1.34;84.38;99516.50;1588718;88;25800;-76
2022/01/20 07:17:45;;;;;;;8.55;3.27;;;;;;;1.35;83.56;99518.62;1606774;87;25839;-75
2022/01/20 07:20:13;;;;;;;12.73;3.85;;;;;;;1.36;83.65;99521.61;1585006;89;25796;-77
2022/01/20 07:22:44;;;;;;;12.93;3.80;;;;;;;1.36;82.89;99513.69;1605777;89;28536;-76
2022/01/20 07:25:11;;;;;;;13.32;3.92;;;;;;;1.35;82.28;99514.17;1602261;89;25826;-76
2022/01/20 07:27:39;;;;;;;14.00;5.67;;;;;;;1.37;82.89;99512.21;1589027;88;25941;-77
2022/01/20 07:30:08;;;;;;;19.62;6.50;;;;;;;1.37;81.88;99508.25;1590408;88;26546;-76
2022/01/20 07:32:35;;;;;;;10.48;4.08;;;;;;;1.38;82.97;99498.53;1590660;88;26538;-75
2022/01/20 07:35:02;;;;;;;10.75;3.62;;;;;;;1.38;82.11;99502.01;1567350;90;27530;-75
2022/01/20 07:37:29;;;;;;;10.50;3.12;;;;;;;1.39;81.65;99489.66;1590806;90;25782;-75
2022/01/20 07:39:56;;;;;;;12.75;4.47;;;;;;;1.41;81.07;99495.08;1606381;87;25815;-76
2022/01/20 07:42:22;;;;;;;14.30;3.95;;;;;;;1.43;81.55;99497.08;1606446;88;25948;-75
2022/01/20 07:45:06;;;;;;;21.73;8.23;;;;;;;1.48;81.86;99496.13;1605972;89;26264;-76
2022/01/20 07:47:35;;;;;;;23.83;10.25;;;;;;;1.53;82.00;99508.86;1602236;87;27629;-76
2022/01/20 07:50:03;;;;;;;16.35;6.55;;;;;;;1.54;81.95;99507.38;1632407;86;25809;-76
2022/01/20 07:52:29;;;;;;;32.30;11.63;;;;;;;1.57;81.68;99507.56;1632506;87;25794;-76
2022/01/20 07:54:56;;;;;;;82.08;26.33;;;;;;;1.59;81.57;99504.27;1632529;87;25765;-76
2022/01/20 07:57:22;;;;;;;65.05;26.97;;;;;;;1.63;81.58;99501.65;1632350;87;26069;-75
2022/01/20 07:59:48;;;;;;;41.73;17.40;;;;;;;1.66;81.31;99491.28;1632291;86;27478;-76
2022/01/20 08:02:16;;;;;;;20.08;8.18;;;;;;;1.69;82.35;99483.86;1617196;87;25923;-77
2022/01/20 08:04:43;;;;;;;11.73;5.22;;;;;;;1.69;81.90;99477.26;1632810;87;25938;-77
2022/01/20 08:07:10;;;;;;;13.08;6.17;;;;;;;1.69;82.11;99471.98;1632536;86;25953;-75
2022/01/20 08:09:38;;;;;;;13.45;4.40;;;;;;;1.72;82.71;99478.77;1632400;86;26037;-76
2022/01/20 08:12:07;;;;;;;15.78;4.03;;;;;;;1.74;82.77;99489.50;1632256;86;28312;-75
2022/01/20 08:14:39;;;;;;;14.50;4.83;;;;;;;1.76;82.70;99484.06;1632831;86;26055;-76
2022/01/20 08:17:07;;;;;;;8.28;3.25;;;;;;;1.79;83.07;99489.87;1632862;86;25951;-76
2022/01/20 08:19:34;;;;;;;10.23;3.60;;;;;;;1.83;82.92;99486.41;1632689;86;25920;-77
2022/01/20 08:22:01;;;;;;;11.43;4.30;;;;;;;1.86;82.68;99488.75;1632389;87;25760;-77
2022/01/20 08:24:28;;;;;;;20.23;3.62;;;;;;;1.87;82.24;99487.27;1632412;86;45644;-76
2022/01/20 08:26:54;;;;;;;32.53;12.28;;;;;;;1.86;81.88;99480.83;1632349;87;25876;-76
2022/01/20 08:29:21;;;;;;;76.37;33.88;;;;;;;1.87;81.44;99475.86;1632803;86;25760;-77
2022/01/20 08:31:48;;;;;;;13.78;8.98;;;;;;;1.87;81.92;99463.50;1632535;86;25792;-77
2022/01/20 08:34:34;;;;;;;12.98;3.80;;;;;;;1.87;81.72;99465.30;1630989;87;26464;-76
2022/01/20 08:37:17;;;;;;;10.88;3.62;;;;;;;1.85;82.16;99485.27;1592734;89;28358;-76
2022/01/20 08:39:44;;;;;;;9.70;3.70;;;;;;;1.82;82.97;99505.37;1618842;86;26580;-76
2022/01/20 08:42:11;;;;;;;8.55;3.77;;;;;;;1.85;83.56;99515.64;1632421;87;25825;-76
2022/01/20 08:44:40;;;;;;;8.23;3.75;;;;;;;1.88;83.95;99496.82;1633073;87;25816;-77
2022/01/20 08:47:17;;;;;;;27.15;10.75;;;;;;;1.91;84.29;99488.59;1632565;85;25868;-77
2022/01/20 08:49:39;;;;;;;12.03;3.90;;;;;;;1.89;84.31;99476.53;1631290;86;28327;-76
2022/01/20 08:52:06;;;;;;;13.22;4.20;;;;;;;1.90;84.39;99483.48;1631996;87;25816;-76
2022/01/20 08:54:34;;;;;;;11.70;4.40;;;;;;;1.91;84.52;99477.20;1630958;87;25856;-77
2022/01/20 08:57:04;;;;;;;13.83;3.70;;;;;;;1.89;84.01;99485.28;1631710;87;25957;-75
2022/01/20 08:59:31;;;;;;;12.85;4.85;;;;;;;1.82;83.24;99478.17;1607954;86;25825;-76
2022/01/20 09:01:58;;;;;;;17.02;7.53;;;;;;;1.79;83.70;99471.88;1632182;87;27477;-74
2022/01/20 09:04:24;;;;;;;9.50;4.40;;;;;;;1.79;83.53;99473.20;1632234;87;25900;-76
2022/01/20 09:06:55;;;;;;;17.23;4.60;;;;;;;1.77;81.65;99472.53;1628462;87;25863;-76
2022/01/20 09:09:23;;;;;;;11.35;5.83;;;;;;;1.77;81.80;99462.80;1631315;86;25791;-78
2022/01/20 09:17:16;;;;;;;8.68;3.55;;;;;;;1.80;80.87;99468.23;1632339;87;25835;-77
2022/01/20 09:19:44;;;;;;;10.08;3.40;;;;;;;1.80;80.07;99472.19;1632429;86;26544;-76
2022/01/20 09:22:12;;;;;;;9.48;3.55;;;;;;;1.79;79.75;99461.31;1632296;87;25876;-76
2022/01/20 09:24:39;;;;;;;8.75;2.27;;;;;;;1.76;80.05;99475.66;1632285;87;25835;-76
2022/01/20 09:27:06;;;;;;;10.20;3.42;;;;;;;1.72;75.92;99465.08;1632636;87;27489;-76
2022/01/20 09:29:32;;;;;;;9.33;3.75;;;;;;;1.65;76.87;99466.69;1632406;86;25824;-78
2022/01/20 09:32:02;;;;;;;9.95;4.10;;;;;;;1.60;75.11;99466.84;1632167;87;26431;-78
2022/01/20 09:34:29;;;;;;;4.70;1.95;;;;;;;1.60;76.91;99470.80;1608111;87;26611;-79
2022/01/20 09:36:56;;;;;;;15.38;6.90;;;;;;;1.58;75.43;99470.45;1632345;87;25811;-79
2022/01/20 09:39:22;;;;;;;18.10;8.35;;;;;;;1.58;73.97;99458.57;1632408;86;28239;-77
2022/01/20 09:41:51;;;;;;;10.25;4.72;;;;;;;1.58;74.72;99466.17;1628666;87;25813;-79
2022/01/20 09:44:20;;;;;;;12.65;4.30;;;;;;;1.58;75.45;99464.36;1632694;87;25632;-79
2022/01/20 09:46:47;;;;;;;8.75;3.45;;;;;;;1.58;75.88;99457.77;1632228;87;25887;-78
2022/01/20 09:49:15;;;;;;;10.10;4.85;;;;;;;1.58;75.23;99464.84;1629583;86;25907;-76
2022/01/20 09:51:43;;;;;;;14.68;6.17;;;;;;;1.58;76.73;99466.17;1631189;87;27480;-77
2022/01/20 09:54:20;;;;;;;11.12;4.60;;;;;;;1.59;76.23;99458.09;1631589;87;25856;-77
2022/01/20 09:56:48;;;;;;;13.85;4.60;;;;;;;1.58;75.65;99464.84;1630570;87;25824;-76
2022/01/20 09:59:16;;;;;;;11.90;5.30;;;;;;;1.52;74.42;99473.72;1631276;86;25942;-76
2022/01/20 10:01:47;;;;;;;12.05;3.33;;;;;;;1.46;74.98;99476.98;1631040;87;25904;-78
2022/01/20 10:04:35;;;;;;;18.07;9.48;;;;;;;1.43;75.25;99462.77;1630722;86;27664;-75
2022/01/20 10:07:14;;;;;;;13.90;8.75;;;;;;;1.41;74.86;99466.58;1630820;87;26129;-76
2022/01/20 10:09:47;;;;;;;10.40;3.98;;;;;;;1.39;75.39;99469.86;1631309;86;25895;-76
2022/01/20 10:12:34;;;;;;;;;;;;;;;1.34;72.44;99480.88;1577983;89;26607;-76
2022/01/20 10:15:11;;;;;;;10.63;4.30;;;;;;;1.27;71.73;99481.16;1563668;90;25829;-76
2022/01/20 10:17:45;;;;;;;13.48;4.10;;;;;;;1.23;71.28;99477.66;1599360;87;27520;-76
2022/01/20 10:20:14;;;;;;;12.23;4.05;;;;;;;1.22;71.23;99468.11;1631308;86;25462;-76
2022/01/20 10:22:56;;;;;;;9.38;4.75;;;;;;;1.24;72.09;99470.91;1630207;87;25852;-77
2022/01/20 10:25:36;;;;;;;8.58;3.08;;;;;;;1.27;71.06;99470.61;1607970;86;26168;-77
2022/01/20 10:28:08;;;;;;;10.53;3.05;;;;;;;1.28;71.29;99466.97;1630586;87;25351;-76
2022/01/20 10:30:36;;;;;;;8.83;3.50;;;;;;;1.32;69.29;99449.04;1631213;86;28377;-75
2022/01/20 10:33:02;;;;;;;6.28;2.52;;;;;;;1.38;71.06;99440.50;1631170;87;26660;-77
2022/01/20 10:35:38;;;;;;;8.78;2.50;;;;;;;1.48;69.09;99450.44;1631666;87;26511;-77
2022/01/20 10:38:14;;;;;;;11.05;3.02;;;;;;;1.51;68.50;99451.45;1630201;87;25968;-76
2022/01/20 10:40:56;;;;;;;;;;;;;;;1.55;69.53;99443.06;1633487;86;25843;-76
2022/01/20 10:43:34;;;;;;;5.85;2.42;;;;;;;1.57;68.95;99433.66;1631189;87;27601;-76
2022/01/20 10:46:13;;;;;;;8.53;3.15;;;;;;;1.57;68.97;99438.94;1612876;87;25858;-76
2022/01/20 10:48:41;;;;;;;10.00;2.77;;;;;;;1.54;69.27;99434.80;1622150;87;25830;-76
2022/01/20 10:51:20;;;;;;;4.28;1.70;;;;;;;1.55;70.16;99436.95;1608674;87;26589;-76
2022/01/20 10:54:04;;;;;;;6.95;3.05;;;;;;;1.55;69.61;99437.79;1619660;87;25843;-75
2022/01/20 10:56:51;;;;;;;7.08;3.00;;;;;;;1.48;69.14;99426.69;1619935;87;27523;-76
2022/01/20 10:59:20;;;;;;;6.30;1.85;;;;;;;1.42;70.03;99438.70;1620129;87;25336;-77
2022/01/20 11:02:09;;;;;;;74.05;27.37;;;;;;;1.39;68.24;99448.24;1620177;87;26121;-77
2022/01/20 11:04:38;;;;;;;7.15;2.62;;;;;;;1.42;69.45;99438.70;1620305;87;26538;-76
2022/01/20 11:07:07;;;;;;;7.08;1.80;;;;;;;1.44;67.15;99439.38;1620064;87;26003;-76
2022/01/20 11:09:42;;;;;;;5.00;1.80;;;;;;;1.44;69.25;99453.05;1620196;87;27685;-76
2022/01/20 11:12:23;;;;;;;9.13;3.27;;;;;;;1.44;68.98;99460.97;1620052;88;26656;-76
2022/01/20 11:14:55;;;;;;;10.50;4.10;;;;;;;1.43;68.34;99457.50;1619758;87;25973;-77
2022/01/20 11:17:26;;;;;;;11.03;3.62;;;;;;;1.41;68.74;99463.42;1620063;87;26451;-75
2022/01/20 11:19:59;;;;;;;13.60;5.45;;;;;;;1.39;68.40;99469.34;1620515;87;25872;-76
2022/01/20 11:22:26;;;;;;;8.10;2.60;;;;;;;1.33;69.09;99458.11;1619776;87;28504;-76
2022/01/20 11:25:04;;;;;;;4.67;2.05;;;;;;;1.29;69.57;99463.84;1618815;87;25953;-76
2022/01/20 11:27:43;;;;;;;4.55;1.37;;;;;;;1.23;69.01;99463.98;1619770;87;25779;-76
2022/01/20 11:30:29;;;;;;;3.37;1.50;;;;;;;1.18;68.56;99452.23;1619913;87;26555;-76
2022/01/20 11:33:09;;;;;;;3.70;1.98;;;;;;;1.16;68.97;99456.35;1618540;87;26030;-75
2022/01/20 11:35:51;;;;;;;10.72;3.00;;;;;;;1.17;68.94;99458.02;1619969;87;27449;-76
2022/01/20 11:38:21;;;;;;;6.22;1.70;;;;;;;1.17;69.00;99466.41;1619962;87;26505;-76
2022/01/20 11:41:00;;;;;;;7.03;2.40;;;;;;;1.14;68.99;99461.44;1619932;87;25399;-76
2022/01/20 11:43:49;;;;;;;21.68;9.18;;;;;;;1.12;68.65;99467.36;1617090;88;26533;-76
2022/01/20 11:46:27;;;;;;;7.53;3.50;;;;;;;1.07;69.92;99473.09;1605673;88;26444;-75
2022/01/20 11:49:05;;;;;;;6.37;3.05;;;;;;;1.03;69.81;99471.75;1612405;87;27501;-76
2022/01/20 11:51:57;;;;;;;11.78;4.70;;;;;;;1.00;69.89;99472.55;1632686;86;25327;-76
2022/01/20 11:54:29;;;;;;;12.05;3.52;;;;;;;1.01;70.14;99469.76;1593492;88;26575;-76
2022/01/20 11:57:21;;;;;;;5.20;2.20;;;;;;;1.08;69.71;99472.12;1606704;89;25897;-76
2022/01/20 11:59:54;;;;;;;5.55;2.80;;;;;;;1.17;70.29;99467.73;1606399;87;25821;-76
2022/01/20 12:02:34;;;;;;;6.28;2.50;;;;;;;1.20;68.35;99460.81;1615947;87;28400;-76
2022/01/20 12:05:06;;;;;;;10.10;3.52;;;;;;;1.22;69.42;99466.79;1633115;87;26082;-76
2022/01/20 12:07:35;;;;;;;6.72;1.92;;;;;;;1.27;69.63;99475.05;1629669;87;25946;-77
2022/01/20 12:10:13;;;;;;;2.83;1.60;;;;;;;1.34;67.50;99486.16;1633247;86;25874;-76
2022/01/20 12:12:40;;;;;;;9.33;4.42;;;;;;;1.37;66.62;99458.61;1633149;87;25952;-76
2022/01/20 12:15:12;;;;;;;2.40;1.30;;;;;;;1.42;68.27;99461.14;1633288;87;28296;-77
2022/01/20 12:17:41;;;;;;;1.77;1.60;;;;;;;1.46;64.17;99469.07;1632896;87;26506;-76
2022/01/20 12:20:11;;;;;;;4.35;1.85;;;;;;;1.43;64.57;99455.38;1633000;86;25767;-76
2022/01/20 12:22:43;;;;;;;2.08;1.37;;;;;;;1.42;64.38;99474.81;1633053;87;25914;-76
2022/01/20 12:25:25;;;;;;;5.85;3.33;;;;;;;1.45;65.91;99477.16;1633326;87;25968;-77
2022/01/20 12:28:08;;;;;;;5.05;2.20;;;;;;;1.47;65.38;99476.50;1631554;87;27498;-76
2022/01/20 12:30:39;;;;;;;4.40;1.70;;;;;;;1.45;66.02;99475.31;1633061;86;25986;-77
2022/01/20 12:33:13;;;;;;;4.80;1.65;;;;;;;1.42;66.02;99485.37;1633830;87;25672;-76
2022/01/20 12:35:48;;;;;;;3.20;1.50;;;;;;;1.34;66.60;99476.92;1633008;87;25821;-76
2022/01/20 12:38:26;;;;;;;3.42;1.22;;;;;;;1.27;66.79;99471.92;1633376;87;25845;-77
2022/01/20 12:41:19;;;;;;;3.35;1.45;;;;;;;1.24;66.63;99476.17;1632988;86;27652;-76
2022/01/20 12:43:59;;;;;;;5.08;1.92;;;;;;;1.20;66.48;99463.45;1632599;87;25984;-76
2022/01/20 12:46:34;;;;;;;8.23;2.30;;;;;;;1.13;66.85;99464.59;1633090;87;25822;-75